createdAt,value
2019-05-14T00:02:32.607Z,74.59
2019-05-14T00:05:07.727Z,74.66
2019-05-14T00:07:42.646Z,74.38
2019-05-14T00:10:17.811Z,74.33
2019-05-14T00:12:53.269Z,74.73
2019-05-14T00:15:28.335Z,75.02
2019-05-14T00:18:03.283Z,74.89
2019-05-14T00:20:38.261Z,75.01
2019-05-14T00:23:13.767Z,74.59
2019-05-14T00:25:49.157Z,75.05
2019-05-14T00:28:24.111Z,75.13
2019-05-14T00:30:59.035Z,75.28
2019-05-14T00:33:34.076Z,75.34
2019-05-14T00:36:11.286Z,75.46
2019-05-14T00:38:46.059Z,75.91
2019-05-14T00:41:21.644Z,76.00
2019-05-14T00:43:56.785Z,75.99
2019-05-14T00:46:32.362Z,75.81
2019-05-14T00:49:07.307Z,75.56
2019-05-14T00:51:42.336Z,75.66
2019-05-14T00:54:17.367Z,75.64
2019-05-14T00:56:52.721Z,75.70
2019-05-14T00:59:27.823Z,75.51
2019-05-14T01:02:03.254Z,75.72
2019-05-14T01:04:39.055Z,75.52
2019-05-14T01:07:14.190Z,75.97
2019-05-14T01:09:49.261Z,76.00
2019-05-14T01:12:24.307Z,76.25
2019-05-14T01:15:07.849Z,76.14
2019-05-14T01:17:37.195Z,76.55
2019-05-14T01:20:12.561Z,76.76
2019-05-14T01:22:48.249Z,76.78
2019-05-14T01:25:23.870Z,76.57
2019-05-14T01:36:54.296Z,76.55
2019-05-14T01:39:29.255Z,77.18
2019-05-14T01:42:07.397Z,77.10
2019-05-14T01:44:42.331Z,76.51
2019-05-14T01:47:17.288Z,76.58
2019-05-14T01:49:52.224Z,76.87
2019-05-14T01:52:27.171Z,77.01
2019-05-14T01:55:05.518Z,76.90
2019-05-14T01:57:42.499Z,76.74
2019-05-14T02:00:18.173Z,76.71
2019-05-14T02:02:53.337Z,76.92
2019-05-14T02:05:28.465Z,76.67
2019-05-14T02:08:03.651Z,76.59
2019-05-14T02:10:38.581Z,76.44
2019-05-14T02:13:13.537Z,76.41
2019-05-14T02:15:48.469Z,76.58
2019-05-14T02:18:23.444Z,76.46
2019-05-14T02:20:58.369Z,76.80
2019-05-14T02:23:33.699Z,76.98
2019-05-14T02:26:08.741Z,77.01
2019-05-14T02:28:43.708Z,76.55
2019-05-14T02:31:20.432Z,76.42
2019-05-14T02:33:58.977Z,76.51
2019-05-14T02:36:32.423Z,76.96
2019-05-14T02:39:10.267Z,76.81
2019-05-14T02:41:45.270Z,76.65
2019-05-14T02:44:21.348Z,77.13
2019-05-14T02:46:59.155Z,77.30
2019-05-14T02:49:34.041Z,77.30
2019-05-14T02:52:09.994Z,77.40
2019-05-14T02:54:45.637Z,77.66
2019-05-14T02:57:20.613Z,77.12
2019-05-14T02:59:55.536Z,76.87
2019-05-14T03:02:31.267Z,76.75
2019-05-14T03:05:09.526Z,76.98
2019-05-14T03:07:43.422Z,77.00
2019-05-14T03:10:20.982Z,77.01
2019-05-14T03:12:58.889Z,76.95
2019-05-14T03:15:49.754Z,77.19
2019-05-14T03:18:29.129Z,78.30
2019-05-14T03:21:02.911Z,78.19
2019-05-14T03:23:39.585Z,78.36
2019-05-14T03:26:14.758Z,78.16
2019-05-14T03:28:50.117Z,78.46
2019-05-14T03:31:25.914Z,78.52
2019-05-14T03:34:02.913Z,79.00
2019-05-14T03:36:42.674Z,79.19
2019-05-14T03:39:14.955Z,79.44
2019-05-14T03:41:50.239Z,79.05
2019-05-14T03:44:28.890Z,78.64
2019-05-14T03:47:09.937Z,78.11
2019-05-14T03:49:43.228Z,77.76
2019-05-14T03:52:19.940Z,77.81
2019-05-14T03:54:55.492Z,78.13
2019-05-14T03:57:30.463Z,78.19
2019-05-14T04:00:09.914Z,78.39
2019-05-14T04:02:43.668Z,78.15
2019-05-14T04:05:22.725Z,78.53
2019-05-14T04:08:00.159Z,79.09
2019-05-14T04:11:00.821Z,79.63
2019-05-14T04:13:40.906Z,80.29
2019-05-14T04:16:20.402Z,80.89
2019-05-14T04:22:29.772Z,80.35
2019-05-14T04:25:11.343Z,80.08
2019-05-14T04:27:50.880Z,80.02
2019-05-14T04:30:29.063Z,79.66
2019-05-14T04:33:05.323Z,79.25
2019-05-14T04:35:40.595Z,79.24
2019-05-14T04:38:15.537Z,78.67
2019-05-14T04:40:50.595Z,78.39
2019-05-14T04:43:29.193Z,78.52
2019-05-14T04:46:03.029Z,78.96
2019-05-14T04:48:43.279Z,78.27
2019-05-14T04:51:15.402Z,77.88
2019-05-14T04:53:50.683Z,77.04
2019-05-14T04:56:25.801Z,77.24
2019-05-14T04:59:01.434Z,77.14
2019-05-14T05:01:39.888Z,76.59
2019-05-14T05:04:14.792Z,76.26
2019-05-14T05:06:50.181Z,76.12
2019-05-14T05:09:25.207Z,76.06
2019-05-14T05:12:00.398Z,75.46
2019-05-14T05:14:35.344Z,75.69
2019-05-14T05:17:10.321Z,75.69
2019-05-14T05:19:46.208Z,75.79
2019-05-14T05:22:21.348Z,76.05
2019-05-14T05:24:56.266Z,75.31
2019-05-14T05:27:31.288Z,75.69
2019-05-14T05:30:08.441Z,76.09
2019-05-14T05:32:43.749Z,75.56
2019-05-14T05:35:18.801Z,75.38
2019-05-14T05:37:53.747Z,75.30
2019-05-14T05:40:28.919Z,74.99
2019-05-14T05:43:03.969Z,74.00
2019-05-14T05:45:39.965Z,74.17
2019-05-14T05:48:14.937Z,72.90
2019-05-14T05:50:50.153Z,73.59
2019-05-14T05:53:28.490Z,72.38
2019-05-14T05:56:02.675Z,71.18
2019-05-14T05:58:39.816Z,71.53
2019-05-14T06:01:14.677Z,71.29
2019-05-14T06:03:49.783Z,71.26
2019-05-14T06:06:24.755Z,71.67
2019-05-14T06:08:59.720Z,71.49
2019-05-14T06:11:38.134Z,70.41
2019-05-14T06:14:15.172Z,69.81
2019-05-14T06:16:50.228Z,68.43
2019-05-14T06:19:26.003Z,65.81
2019-05-14T06:22:04.042Z,64.93
2019-05-14T06:24:38.996Z,63.01
2019-05-14T06:27:14.271Z,62.98
2019-05-14T06:29:49.419Z,63.43
2019-05-14T06:32:24.426Z,62.98
2019-05-14T06:34:59.562Z,63.90
2019-05-14T06:37:34.769Z,61.63
2019-05-14T06:40:10.473Z,59.50
2019-05-14T06:42:45.638Z,59.07
2019-05-14T06:45:20.738Z,59.05
2019-05-14T06:47:56.470Z,58.58
2019-05-14T06:50:31.432Z,58.10
2019-05-14T06:53:08.514Z,57.73
2019-05-14T06:55:43.266Z,58.12
2019-05-14T06:58:20.255Z,57.16
2019-05-14T07:00:55.091Z,58.01
2019-05-14T07:03:30.212Z,58.25
2019-05-14T07:06:05.166Z,57.34
2019-05-14T07:08:40.662Z,56.76
2019-05-14T07:11:15.596Z,57.42
2019-05-14T07:13:50.583Z,57.79
2019-05-14T07:16:25.625Z,57.00
2019-05-14T07:19:02.654Z,56.34
2019-05-14T07:21:38.335Z,56.78
2019-05-14T07:24:15.193Z,55.96
2019-05-14T07:26:50.275Z,54.97
2019-05-14T07:29:25.376Z,55.77
2019-05-14T07:32:00.455Z,53.96
2019-05-14T07:34:35.453Z,55.48
2019-05-14T07:37:10.559Z,54.02
2019-05-14T07:39:45.554Z,54.09
2019-05-14T07:42:20.595Z,55.18
2019-05-14T07:44:55.836Z,52.20
2019-05-14T07:47:31.719Z,52.93
2019-05-14T07:50:08.573Z,53.20
2019-05-14T07:52:45.636Z,51.69
2019-05-14T07:55:20.439Z,49.56
2019-05-14T07:57:55.420Z,51.14
2019-05-14T08:00:30.679Z,48.28
2019-05-14T08:03:10.256Z,48.48
2019-05-14T08:05:48.320Z,49.15
2019-05-14T08:08:23.078Z,48.96
2019-05-14T08:10:59.230Z,47.69
2019-05-14T08:13:34.504Z,49.24
2019-05-14T08:16:09.656Z,48.33
2019-05-14T08:18:44.834Z,48.71
2019-05-14T08:21:19.841Z,49.26
2019-05-14T08:23:54.952Z,45.62
2019-05-14T08:26:30.012Z,48.58
2019-05-14T08:29:04.974Z,48.44
2019-05-14T08:31:39.918Z,47.67
2019-05-14T08:34:15.110Z,47.02
2019-05-14T08:36:50.062Z,45.02
2019-05-14T08:39:28.601Z,45.23
2019-05-14T08:42:04.392Z,45.80
2019-05-14T08:44:39.494Z,46.86
2019-05-14T08:47:14.464Z,45.06
2019-05-14T08:49:50.640Z,44.05
2019-05-14T08:52:28.827Z,43.39
2019-05-14T08:55:09.952Z,43.61
2019-05-14T08:57:41.147Z,45.07
2019-05-14T09:00:18.349Z,44.58
2019-05-14T09:02:53.155Z,43.62
2019-05-14T09:05:28.666Z,43.28
2019-05-14T09:08:03.870Z,44.13
2019-05-14T09:10:40.217Z,43.00
2019-05-14T09:13:18.188Z,43.11
2019-05-14T09:15:52.599Z,43.80
2019-05-14T09:18:29.093Z,41.49
2019-05-14T09:21:04.289Z,42.71
2019-05-14T09:23:39.551Z,42.09
2019-05-14T09:26:18.158Z,42.03
2019-05-14T09:28:55.372Z,43.54
2019-05-14T09:31:31.084Z,43.84
2019-05-14T09:34:06.160Z,43.69
2019-05-14T09:36:41.157Z,40.58
2019-05-14T09:39:18.609Z,40.22
2019-05-14T09:41:53.025Z,41.46
2019-05-14T09:44:29.250Z,41.03
2019-05-14T09:47:04.907Z,41.94
2019-05-14T09:49:40.045Z,40.03
2019-05-14T09:52:15.075Z,40.03
2019-05-14T09:54:58.439Z,40.69
2019-05-14T09:57:34.059Z,42.42
2019-05-14T10:00:14.426Z,39.91
2019-05-14T10:02:49.476Z,41.14
2019-05-14T10:05:25.444Z,38.64
2019-05-14T10:08:00.492Z,38.04
2019-05-14T10:10:39.627Z,36.97
2019-05-14T10:13:14.576Z,39.89
2019-05-14T10:15:49.546Z,39.27
2019-05-14T10:18:24.522Z,38.92
2019-05-14T10:20:59.592Z,39.18
2019-05-14T10:23:34.626Z,38.21
2019-05-14T10:26:09.756Z,37.04
2019-05-14T10:28:44.817Z,37.54
2019-05-14T10:31:19.912Z,38.61
2019-05-14T10:33:54.881Z,39.07
2019-05-14T10:36:30.188Z,39.31
2019-05-14T10:39:09.171Z,38.31
2019-05-14T10:41:43.366Z,36.90
2019-05-14T10:44:18.891Z,38.11
2019-05-14T10:46:55.539Z,36.26
2019-05-14T10:49:31.599Z,38.86
2019-05-14T10:52:08.247Z,37.75
2019-05-14T10:54:55.489Z,37.33
2019-05-14T10:57:21.948Z,35.87
2019-05-14T10:59:59.119Z,38.19
2019-05-14T11:02:34.713Z,37.86
2019-05-14T11:05:10.310Z,37.54
2019-05-14T11:07:48.220Z,36.78
2019-05-14T11:10:23.623Z,36.82
2019-05-14T11:12:59.283Z,35.16
2019-05-14T11:15:34.613Z,34.27
2019-05-14T11:18:09.677Z,32.64
2019-05-14T11:20:44.771Z,32.42
2019-05-14T11:23:19.712Z,32.88
2019-05-14T11:25:54.782Z,31.99
2019-05-14T11:28:29.727Z,32.20
2019-05-14T11:31:04.840Z,32.35
2019-05-14T11:33:39.804Z,30.78
2019-05-14T11:36:18.563Z,29.85
2019-05-14T11:38:52.588Z,31.68
2019-05-14T11:41:27.860Z,32.66
2019-05-14T11:44:02.953Z,30.52
2019-05-14T11:46:47.044Z,27.59
2019-05-14T11:49:19.388Z,30.40
2019-05-14T11:52:04.199Z,28.86
2019-05-14T11:54:30.920Z,29.35
2019-05-14T11:57:11.175Z,29.43
2019-05-14T11:59:42.534Z,28.71
2019-05-14T12:02:18.928Z,27.00
2019-05-14T12:04:54.359Z,27.19
2019-05-14T12:07:29.575Z,26.31
2019-05-14T12:10:04.982Z,26.67
2019-05-14T12:12:39.981Z,26.38
2019-05-14T12:15:15.442Z,26.33
2019-05-14T12:17:51.533Z,24.41
2019-05-14T12:20:29.659Z,26.54
2019-05-14T12:23:04.019Z,25.88
2019-05-14T12:25:39.094Z,26.66
2019-05-14T12:28:14.087Z,28.45
2019-05-14T12:30:49.394Z,28.63
2019-05-14T12:33:24.749Z,26.53
2019-05-14T12:36:00.735Z,26.57
2019-05-14T12:38:38.100Z,27.83
2019-05-14T12:41:12.588Z,27.95
2019-05-14T12:43:48.844Z,26.08
2019-05-14T12:46:24.977Z,26.17
2019-05-14T12:48:59.987Z,24.36
2019-05-14T12:51:38.255Z,24.28
2019-05-14T12:54:12.670Z,24.12
2019-05-14T12:56:49.412Z,24.90
2019-05-14T12:59:24.626Z,25.73
2019-05-14T13:01:59.638Z,24.58
2019-05-14T13:04:34.635Z,25.31
2019-05-14T13:07:09.631Z,24.13
2019-05-14T13:09:44.643Z,22.90
2019-05-14T13:12:19.687Z,24.53
2019-05-14T13:14:54.667Z,24.29
2019-05-14T13:17:29.830Z,25.44
2019-05-14T13:20:05.253Z,24.69
2019-05-14T13:22:45.892Z,23.55
2019-05-14T13:25:18.923Z,24.99
2019-05-14T13:27:54.274Z,25.04
2019-05-14T13:30:29.855Z,26.44
2019-05-14T13:33:05.014Z,25.49
2019-05-14T13:35:40.760Z,25.55
2019-05-14T13:38:16.002Z,24.42
2019-05-14T13:40:50.975Z,24.40
2019-05-14T13:43:26.082Z,25.65
2019-05-14T13:46:01.109Z,27.79
2019-05-14T13:48:43.226Z,27.78
2019-05-14T13:51:16.461Z,29.38
2019-05-14T13:53:52.372Z,31.36
2019-05-14T13:56:28.429Z,29.45
2019-05-14T13:59:03.668Z,27.69
2019-05-14T14:01:38.633Z,27.86
2019-05-14T14:04:15.168Z,29.85
2019-05-14T14:06:50.407Z,30.20
2019-05-14T14:09:25.387Z,31.56
2019-05-14T14:12:00.449Z,32.13
2019-05-14T14:14:38.401Z,33.21
2019-05-14T14:17:12.263Z,35.02
2019-05-14T14:19:48.315Z,34.67
2019-05-14T14:22:23.337Z,36.40
2019-05-14T14:24:59.258Z,38.23
2019-05-14T14:27:35.029Z,36.59
2019-05-14T14:30:11.134Z,36.84
2019-05-14T14:32:49.258Z,37.22
2019-05-14T14:35:24.325Z,36.99
2019-05-14T14:37:59.539Z,36.89
2019-05-14T14:40:35.749Z,37.74
2019-05-14T14:43:10.834Z,39.12
2019-05-14T14:45:47.590Z,39.87
2019-05-14T14:48:22.720Z,39.32
2019-05-14T14:50:58.674Z,39.82
2019-05-14T14:53:47.436Z,39.51
2019-05-14T14:56:10.934Z,38.47
2019-05-14T14:58:45.966Z,35.32
2019-05-14T15:01:21.005Z,37.08
2019-05-14T15:03:59.578Z,36.68
2019-05-14T15:06:34.089Z,37.34
2019-05-14T15:09:09.694Z,37.46
2019-05-14T15:11:45.369Z,37.82
2019-05-14T15:14:20.560Z,37.62
2019-05-14T15:16:55.644Z,39.35
2019-05-14T15:19:30.723Z,38.64
2019-05-14T15:22:08.643Z,37.39
2019-05-14T15:24:42.378Z,36.86
2019-05-14T15:27:18.951Z,36.02
2019-05-14T15:29:54.120Z,37.43
2019-05-14T15:32:30.342Z,38.41
2019-05-14T15:35:10.683Z,37.17
2019-05-14T15:37:44.981Z,37.59
2019-05-14T15:40:22.497Z,37.93
2019-05-14T15:42:58.960Z,40.07
2019-05-14T15:45:34.421Z,38.77
2019-05-14T15:48:09.494Z,38.13
2019-05-14T15:50:44.500Z,39.87
2019-05-14T15:53:19.695Z,38.90
2019-05-14T15:55:54.825Z,39.77
2019-05-14T15:58:38.758Z,39.35
2019-05-14T16:01:12.848Z,39.84
2019-05-14T16:03:48.304Z,40.24
2019-05-14T16:06:23.441Z,40.35
2019-05-14T16:08:58.973Z,39.95
2019-05-14T16:11:34.312Z,41.52
2019-05-14T16:14:10.319Z,40.55
2019-05-14T16:16:45.650Z,40.92
2019-05-14T16:19:22.365Z,41.83
2019-05-14T16:21:58.627Z,41.88
2019-05-14T16:24:34.010Z,41.68
2019-05-14T16:27:09.115Z,42.43
2019-05-14T16:29:46.023Z,40.51
2019-05-14T16:32:21.074Z,40.71
2019-05-14T16:34:58.078Z,41.30
2019-05-14T16:37:33.346Z,41.81
2019-05-14T16:40:09.549Z,43.00
2019-05-14T16:42:44.671Z,42.31
2019-05-14T16:45:20.275Z,41.62
2019-05-14T16:47:58.941Z,41.42
2019-05-14T16:50:33.674Z,43.07
2019-05-14T16:53:11.590Z,42.80
2019-05-14T16:55:45.587Z,43.71
2019-05-14T16:58:20.597Z,44.67
2019-05-14T17:00:55.689Z,44.33
2019-05-14T17:03:30.960Z,44.47
2019-05-14T17:06:06.027Z,44.63
2019-05-14T17:08:41.054Z,46.08
2019-05-14T17:11:18.117Z,47.15
2019-05-14T17:13:52.779Z,47.39
2019-05-14T17:16:28.950Z,47.65
2019-05-14T17:19:05.283Z,48.13
2019-05-14T17:21:40.490Z,47.26
2019-05-14T17:24:15.731Z,47.05
2019-05-14T17:26:50.855Z,47.16
2019-05-14T17:29:25.830Z,47.54
2019-05-14T17:32:01.044Z,47.65
2019-05-14T17:34:38.486Z,48.23
2019-05-14T17:37:13.125Z,48.74
2019-05-14T17:39:48.984Z,49.46
2019-05-14T17:42:24.227Z,50.01
2019-05-14T17:45:00.421Z,49.89
2019-05-14T17:47:38.782Z,50.26
2019-05-14T17:50:13.987Z,50.27
2019-05-14T17:52:56.554Z,50.39
2019-05-14T17:55:28.141Z,50.93
2019-05-14T17:58:02.733Z,50.47
2019-05-14T18:00:38.160Z,51.32
2019-05-14T18:03:13.313Z,51.35
2019-05-14T18:05:50.165Z,50.99
2019-05-14T18:08:25.351Z,51.11
2019-05-14T18:11:05.001Z,51.91
2019-05-14T18:13:40.068Z,52.02
2019-05-14T18:16:15.170Z,51.74
2019-05-14T18:18:50.993Z,52.30
2019-05-14T18:21:28.272Z,52.78
2019-05-14T18:24:02.779Z,52.67
2019-05-14T18:26:38.596Z,53.27
2019-05-14T18:29:13.914Z,54.03
2019-05-14T18:31:53.584Z,54.73
2019-05-14T18:34:25.622Z,54.57
2019-05-14T18:37:01.431Z,55.67
2019-05-14T18:39:39.274Z,56.35
2019-05-14T18:42:13.377Z,56.07
2019-05-14T18:44:49.792Z,57.17
2019-05-14T18:47:25.083Z,57.09
2019-05-14T18:50:01.028Z,57.44
2019-05-14T18:52:39.868Z,57.51
2019-05-14T18:55:15.280Z,57.74
2019-05-14T18:57:50.313Z,57.39
2019-05-14T19:00:25.292Z,58.40
2019-05-14T19:03:00.379Z,57.35
2019-05-14T19:05:35.394Z,58.92
2019-05-14T19:08:11.251Z,58.51
2019-05-14T19:10:49.605Z,57.37
2019-05-14T19:13:24.664Z,57.89
2019-05-14T19:15:59.772Z,58.23
2019-05-14T19:18:34.805Z,58.65
2019-05-14T19:21:09.793Z,59.05
2019-05-14T19:23:45.416Z,58.47
2019-05-14T19:26:33.375Z,58.99
2019-05-14T19:28:58.266Z,58.78
2019-05-14T19:31:33.314Z,59.08
2019-05-14T19:34:08.629Z,58.46
2019-05-14T19:36:43.594Z,59.19
2019-05-14T19:39:18.829Z,59.27
2019-05-14T19:41:55.919Z,59.24
2019-05-14T19:44:30.920Z,59.57
2019-05-14T19:47:05.949Z,59.12
2019-05-14T19:49:41.057Z,59.97
2019-05-14T19:52:16.207Z,59.48
2019-05-14T19:54:51.418Z,60.62
2019-05-14T19:57:26.407Z,59.63
2019-05-14T20:00:01.636Z,59.50
2019-05-14T20:02:38.901Z,59.76
2019-05-14T20:05:15.933Z,59.53
2019-05-14T20:07:51.150Z,60.43
2019-05-14T20:13:28.839Z,60.78
2019-05-14T20:16:04.580Z,60.88
2019-05-14T20:18:39.554Z,60.01
2019-05-14T20:21:15.999Z,60.26
2019-05-14T20:23:51.004Z,60.04
2019-05-14T20:26:28.192Z,60.51
2019-05-14T20:29:03.056Z,59.46
2019-05-14T20:31:38.930Z,60.09
2019-05-14T20:34:14.670Z,60.19
2019-05-14T20:36:49.708Z,60.56
2019-05-14T20:39:24.755Z,60.63
2019-05-14T20:41:59.846Z,61.08
2019-05-14T20:44:34.943Z,61.36
2019-05-14T20:47:12.372Z,61.01
2019-05-14T20:49:47.437Z,60.74
2019-05-14T20:52:22.512Z,61.08
2019-05-14T20:54:58.377Z,59.63
2019-05-14T20:57:33.745Z,60.15
2019-05-14T21:00:11.584Z,59.25
2019-05-14T21:02:46.787Z,59.72
2019-05-14T21:05:22.130Z,59.73
2019-05-14T21:08:01.308Z,60.12
2019-05-14T21:10:58.692Z,59.94
2019-05-14T21:13:33.397Z,59.01
2019-05-14T21:16:10.830Z,59.70
2019-05-14T21:18:45.323Z,59.80
2019-05-14T21:21:35.531Z,60.37
2019-05-14T21:24:10.603Z,60.91
2019-05-14T21:26:45.945Z,60.88
2019-05-14T21:29:21.726Z,61.19
2019-05-14T21:32:01.331Z,61.02
2019-05-14T21:34:34.763Z,61.57
2019-05-14T21:37:09.917Z,61.81
2019-05-14T21:39:52.554Z,61.68
2019-05-14T21:42:28.533Z,62.35
2019-05-14T21:45:06.793Z,62.28
2019-05-14T21:47:40.868Z,62.72
2019-05-14T21:50:18.127Z,63.04
2019-05-14T21:52:52.997Z,62.47
2019-05-14T21:55:28.866Z,62.66
2019-05-14T21:58:04.104Z,63.17
2019-05-14T22:00:48.284Z,63.21
2019-05-14T22:03:22.582Z,62.95
2019-05-14T22:05:59.339Z,63.04
2019-05-14T22:08:34.604Z,63.80
2019-05-14T22:11:09.700Z,64.30
2019-05-14T22:13:44.889Z,64.21
2019-05-14T22:16:19.896Z,64.06
2019-05-14T22:18:54.896Z,64.47
2019-05-14T22:21:30.018Z,65.10
2019-05-14T22:24:05.070Z,65.88
2019-05-14T22:26:40.370Z,65.99
2019-05-14T22:29:17.750Z,65.57
2019-05-14T22:31:52.206Z,65.86
2019-05-14T22:34:28.094Z,66.17
2019-05-14T22:37:03.334Z,66.66
2019-05-14T22:39:39.034Z,67.06
2019-05-14T22:42:14.258Z,66.95
2019-05-14T22:44:50.386Z,67.07
2019-05-14T22:47:25.755Z,67.39
2019-05-14T22:50:00.734Z,67.36
2019-05-14T22:52:38.274Z,67.62
2019-05-14T22:55:12.415Z,67.52
2019-05-14T22:57:48.313Z,67.52
2019-05-14T23:00:23.753Z,67.70
2019-05-14T23:02:58.832Z,67.49
2019-05-14T23:05:34.024Z,67.81
2019-05-14T23:08:09.092Z,67.59
2019-05-14T23:10:44.042Z,67.92
2019-05-14T23:13:19.038Z,68.01
2019-05-14T23:15:54.831Z,68.44
2019-05-14T23:18:29.938Z,67.85
2019-05-14T23:21:04.906Z,67.65
2019-05-14T23:23:40.003Z,67.51
2019-05-14T23:26:14.974Z,67.25
2019-05-14T23:28:50.106Z,67.45
2019-05-14T23:31:25.038Z,67.89
2019-05-14T23:34:00.022Z,68.31
2019-05-14T23:36:38.627Z,68.13
2019-05-14T23:39:12.951Z,68.69
2019-05-14T23:41:48.837Z,69.09
2019-05-14T23:44:24.069Z,69.18
2019-05-14T23:46:59.051Z,68.97
2019-05-14T23:49:34.126Z,68.39
2019-05-14T23:52:10.272Z,68.31
2019-05-14T23:54:45.250Z,68.30
2019-05-14T23:57:20.280Z,68.35
2019-05-14T23:59:55.277Z,68.80
